Time;durP1;ratioP1;P1;durP2;ratioP2;P2;SDS_P1;SDS_P2;PMS_P1;PMS_P2;Temp;Humidity;BMP_temperature;BMP_pressure;BME280_temperature;BME280_humidity;BME280_pressure;Samples;Min_cycle;Max_cycle;Signal;HPM_P1;HPM_P2
2021/12/07 00:02:25;;;;;;;30.80;16.40;;;6.50;63.30;;;;;;4954542;29;20061;-81
2021/12/07 00:04:53;;;;;;;30.40;15.25;;;6.40;62.90;;;;;;4926759;29;20047;-85
2021/12/07 00:07:39;;;;;;;29.45;15.77;;;6.70;61.90;;;;;;4936496;29;20431;-88
2021/12/07 00:10:06;;;;;;;29.48;15.68;;;6.80;62.30;;;;;;4940540;29;20505;-88
2021/12/07 00:12:37;;;;;;;30.00;15.93;;;6.80;61.60;;;;;;4955255;29;20044;-85
2021/12/07 00:15:04;;;;;;;;;;;6.90;61.90;;;;;;4938115;29;20054;-85
2021/12/07 00:17:31;;;;;;;28.88;14.98;;;6.80;61.50;;;;;;4929534;28;19913;-85
2021/12/07 00:19:58;;;;;;;29.30;15.68;;;6.30;62.70;;;;;;4939984;29;20538;-87
2021/12/07 00:22:24;;;;;;;28.27;15.38;;;6.30;63.50;;;;;;4939278;29;20031;-87
2021/12/07 00:24:50;;;;;;;29.23;15.52;;;6.30;63.10;;;;;;5020841;28;20053;-83
2021/12/07 00:27:16;;;;;;;26.75;14.77;;;6.40;62.50;;;;;;5012443;28;20042;-84
2021/12/07 00:29:42;;;;;;;30.00;15.57;;;6.80;61.60;;;;;;5015450;28;20100;-83
2021/12/07 00:32:23;;;;;;;29.00;15.93;;;6.80;61.30;;;;;;5033665;28;20123;-82
2021/12/07 00:35:14;;;;;;;29.60;16.17;;;7.10;60.70;;;;;;5076797;28;20378;-83
2021/12/07 00:37:48;;;;;;;30.65;15.98;;;6.40;62.30;;;;;;5044383;28;20037;-83
2021/12/07 00:41:04;;;;;;;27.48;14.93;;;6.30;62.80;;;;;;5021656;28;20079;-85
2021/12/07 00:47:14;;;;;;;;;;;6.40;61.90;;;;;;4929360;29;20094;-82
2021/12/07 00:49:40;;;;;;;27.40;14.98;;;6.20;63.50;;;;;;5276385;22;19947;-87
2021/12/07 00:52:06;;;;;;;28.77;15.95;;;6.40;62.40;;;;;;5076514;28;20112;-88
2021/12/07 00:54:33;;;;;;;26.05;14.68;;;6.30;62.30;;;;;;5077243;28;20028;-84
2021/12/07 00:57:01;;;;;;;29.88;15.07;;;6.70;62.20;;;;;;5057106;28;20340;-86
2021/12/07 00:59:28;;;;;;;30.52;15.75;;;6.80;61.00;;;;;;5076643;28;20032;-88
2021/12/07 01:01:54;;;;;;;29.70;15.93;;;6.30;62.10;;;;;;5076385;28;20056;-84
2021/12/07 01:04:20;;;;;;;29.80;15.52;;;6.40;62.40;;;;;;5094728;28;20036;-84
2021/12/07 01:06:59;;;;;;;26.50;15.85;;;6.50;63.00;;;;;;5076778;28;20406;-84
2021/12/07 01:25:39;;;;;;;30.67;16.48;;;6.50;62.30;;;;;;5094381;28;20047;-90
2021/12/07 01:28:33;;;;;;;31.38;15.32;;;6.60;62.50;;;;;;5076279;28;20057;-86
2021/12/07 01:30:59;;;;;;;30.70;16.17;;;6.50;62.30;;;;;;5093861;28;20040;-93
2021/12/07 02:01:10;;;;;;;30.23;16.30;;;7.00;61.00;;;;;;5051853;28;20021;-84
2021/12/07 02:03:39;;;;;;;33.40;17.08;;;7.00;61.10;;;;;;5051762;28;20055;-86
2021/12/07 02:06:05;;;;;;;32.47;16.88;;;6.80;61.00;;;;;;5032257;28;20079;-83
2021/12/07 02:08:31;;;;;;;27.98;15.82;;;6.80;61.90;;;;;;5026866;28;20022;-83
2021/12/07 02:11:01;;;;;;;30.83;15.98;;;6.80;61.30;;;;;;5020029;28;20125;-85
2021/12/07 02:15:56;;;;;;;34.25;17.10;;;7.00;61.30;;;;;;5043128;28;20026;-85
2021/12/07 02:18:22;;;;;;;29.90;16.15;;;6.90;60.60;;;;;;5031636;28;20024;-83
2021/12/07 02:20:48;;;;;;;30.27;16.88;;;6.70;62.10;;;;;;5049516;28;20029;-86
2021/12/07 02:23:14;;;;;;;28.98;15.90;;;6.80;62.00;;;;;;5051829;28;20519;-90
2021/12/07 02:25:41;;;;;;;29.60;16.65;;;6.90;61.10;;;;;;5035057;28;20488;-86
2021/12/07 02:28:12;;;;;;;29.80;16.00;;;7.00;61.10;;;;;;5051688;28;20017;-86
2021/12/07 02:30:38;;;;;;;31.08;16.58;;;6.70;61.30;;;;;;5049259;28;20097;-86
2021/12/07 02:33:04;;;;;;;27.95;14.60;;;6.60;62.60;;;;;;5051540;28;20031;-85
2021/12/07 02:35:30;;;;;;;30.15;16.42;;;6.60;62.10;;;;;;5072016;28;20024;-87
2021/12/07 02:37:58;;;;;;;30.73;15.82;;;6.50;61.80;;;;;;5072962;28;20024;-86
2021/12/07 02:40:25;;;;;;;36.95;19.80;;;6.50;62.60;;;;;;5072350;28;20021;-85
2021/12/07 02:42:51;;;;;;;29.23;16.20;;;6.80;61.90;;;;;;5090045;28;20027;-84
2021/12/07 02:45:20;;;;;;;29.45;16.17;;;6.50;61.40;;;;;;5075594;28;20028;-86
2021/12/07 02:47:46;;;;;;;30.83;16.85;;;6.20;63.10;;;;;;5075834;28;20016;-87
2021/12/07 02:50:14;;;;;;;31.50;16.63;;;6.80;62.30;;;;;;5072242;28;20089;-89
2021/12/07 02:52:40;;;;;;;31.90;16.77;;;6.80;61.40;;;;;;5092238;28;20025;-87
2021/12/07 02:55:07;;;;;;;28.50;15.65;;;6.70;61.60;;;;;;5079392;28;20061;-88
2021/12/07 02:57:34;;;;;;;30.02;15.52;;;7.20;61.10;;;;;;5079531;28;20024;-87
2021/12/07 03:00:07;;;;;;;30.45;16.63;;;7.20;60.60;;;;;;5079126;28;20023;-88
2021/12/07 03:02:42;;;;;;;28.80;15.05;;;7.10;60.30;;;;;;5079446;28;20081;-92
2021/12/07 03:05:24;;;;;;;31.83;16.65;;;6.90;60.80;;;;;;5079170;28;20043;-90
2021/12/07 03:26:47;;;;;;;29.35;16.40;;;6.50;62.50;;;;;;5096824;28;20066;-86
2021/12/07 03:29:16;;;;;;;32.03;17.85;;;6.80;61.50;;;;;;5078536;28;20056;-87
2021/12/07 03:31:41;;;;;;;30.80;15.80;;;6.90;61.50;;;;;;5078720;28;20024;-86
2021/12/07 03:34:07;;;;;;;33.22;17.02;;;6.60;61.50;;;;;;5078769;28;20081;-86
2021/12/07 03:36:33;;;;;;;34.35;17.70;;;6.80;62.00;;;;;;5078555;28;20044;-91
2021/12/07 03:38:59;;;;;;;32.40;16.90;;;6.80;61.30;;;;;;5075502;28;20021;-87
2021/12/07 03:41:26;;;;;;;30.75;17.25;;;6.70;61.20;;;;;;5074217;28;20433;-87
2021/12/07 03:43:51;;;;;;;33.92;18.38;;;6.20;62.20;;;;;;5078535;28;20028;-86
2021/12/07 03:46:18;;;;;;;31.05;16.52;;;6.10;62.60;;;;;;5078501;28;20038;-85
2021/12/07 03:48:44;;;;;;;33.13;16.92;;;6.40;62.80;;;;;;5078250;28;20472;-87
2021/12/07 03:53:14;;;;;;;32.67;16.75;;;6.20;61.80;;;;;;5132145;27;20585;-87
2021/12/07 03:55:40;;;;;;;34.45;17.02;;;6.40;62.70;;;;;;5110490;28;20039;-88
2021/12/07 03:58:06;;;;;;;33.55;17.48;;;6.20;62.50;;;;;;5111516;28;20463;-88
2021/12/07 04:00:34;;;;;;;34.53;17.42;;;6.30;62.20;;;;;;5093599;28;20114;-85
2021/12/07 04:03:06;;;;;;;32.00;17.38;;;6.60;62.30;;;;;;5093557;28;20077;-90
2021/12/07 04:05:33;;;;;;;32.38;16.88;;;6.80;61.30;;;;;;5110389;28;20462;-85
2021/12/07 04:15:30;;;;;;;30.15;16.60;;;6.70;60.90;;;;;;5107841;22;20647;-85
2021/12/07 04:17:56;;;;;;;35.90;17.20;;;6.60;61.50;;;;;;5063551;28;20137;-87
2021/12/07 04:20:21;;;;;;;37.58;18.83;;;6.80;61.90;;;;;;5071973;28;20479;-85
2021/12/07 04:22:49;;;;;;;33.22;17.30;;;6.90;61.10;;;;;;5071954;28;20471;-86
2021/12/07 04:25:17;;;;;;;32.78;16.92;;;7.10;60.70;;;;;;5072003;28;20024;-91
2021/12/07 04:27:43;;;;;;;33.30;17.48;;;7.10;60.40;;;;;;5072048;28;20024;-87
2021/12/07 04:30:13;;;;;;;34.78;17.98;;;7.10;60.10;;;;;;5076784;28;20075;-89
2021/12/07 04:32:41;;;;;;;34.10;17.80;;;6.70;60.60;;;;;;5051859;28;20029;-87
2021/12/07 04:35:09;;;;;;;31.98;16.75;;;6.60;61.60;;;;;;5069331;28;20033;-88
2021/12/07 04:37:52;;;;;;;32.45;16.48;;;6.50;60.70;;;;;;5068543;28;20447;-84
2021/12/07 04:40:57;;;;;;;31.27;16.80;;;6.20;62.30;;;;;;5067973;28;20059;-84
2021/12/07 04:43:42;;;;;;;33.25;16.98;;;6.60;62.00;;;;;;5068251;28;20021;-86
2021/12/07 04:46:17;;;;;;;34.28;17.83;;;6.30;61.70;;;;;;5075128;28;20025;-84
2021/12/07 04:58:01;;;;;;;33.60;17.83;;;6.40;61.60;;;;;;5048696;28;20160;-89
2021/12/07 05:00:28;;;;;;;31.35;17.30;;;6.80;61.20;;;;;;5048506;28;20094;-87
2021/12/07 05:03:12;;;;;;;34.05;17.95;;;6.80;60.40;;;;;;5043830;28;20033;-85
2021/12/07 05:05:44;;;;;;;35.08;18.17;;;6.60;61.10;;;;;;5035116;28;20025;-86
2021/12/07 05:08:13;;;;;;;32.75;16.63;;;6.80;60.70;;;;;;5034861;28;20025;-84
2021/12/07 05:39:53;;;;;;;32.25;17.63;;;6.20;61.50;;;;;;5103813;22;20112;-85
2021/12/07 05:53:17;;;;;;;31.90;16.90;;;6.50;61.40;;;;;;5118987;22;20519;-84
2021/12/07 05:55:56;;;;;;;32.58;17.42;;;6.30;60.90;;;;;;5105873;22;20048;-85
2021/12/07 05:58:22;;;;;;;62.77;24.80;;;6.00;61.80;;;;;;5080456;22;20052;-83
2021/12/07 06:01:11;;;;;;;38.17;18.70;;;6.30;62.00;;;;;;5073546;28;20079;-86
2021/12/07 06:03:36;;;;;;;37.30;18.13;;;6.50;61.00;;;;;;5072855;28;20050;-84
2021/12/07 06:06:06;;;;;;;32.65;17.58;;;6.40;60.90;;;;;;5073041;28;20028;-85
2021/12/07 06:08:35;;;;;;;35.75;18.23;;;6.50;61.50;;;;;;5072921;28;20016;-86
2021/12/07 06:11:01;;;;;;;30.38;16.15;;;6.70;60.60;;;;;;5084845;28;20083;-86
2021/12/07 06:36:39;;;;;;;37.70;19.35;;;6.10;61.70;;;;;;4895072;29;20104;-84
2021/12/07 06:39:07;;;;;;;32.03;17.42;;;6.30;61.50;;;;;;4894723;29;20037;-85
2021/12/07 06:41:33;;;;;;;35.60;17.88;;;6.00;62.00;;;;;;4894216;29;20021;-85
2021/12/07 06:44:00;;;;;;;33.85;17.27;;;6.00;61.60;;;;;;4894650;29;20037;-85
2021/12/07 06:46:25;;;;;;;31.80;16.77;;;6.10;62.00;;;;;;4894597;29;20112;-84
2021/12/07 06:48:51;;;;;;;32.35;15.98;;;6.40;61.00;;;;;;4891041;29;20462;-86
2021/12/07 06:53:57;;;;;;;33.95;16.38;;;6.30;61.10;;;;;;4958279;23;20438;-85
2021/12/07 07:00:21;;;;;;;35.25;18.45;;;6.40;60.90;;;;;;4907361;23;20048;-86
2021/12/07 07:02:47;;;;;;;33.33;17.65;;;6.40;60.80;;;;;;4892806;29;20032;-86
2021/12/07 07:05:17;;;;;;;35.78;18.67;;;6.60;60.70;;;;;;4882407;29;20037;-87
2021/12/07 07:07:43;;;;;;;39.20;18.80;;;7.10;60.30;;;;;;4881611;29;20025;-85
2021/12/07 07:10:12;;;;;;;41.17;20.77;;;6.90;59.70;;;;;;4881511;29;20089;-84
2021/12/07 07:12:38;;;;;;;38.03;19.25;;;7.10;59.90;;;;;;4881768;29;20017;-86
2021/12/07 07:15:06;;;;;;;34.15;16.63;;;7.10;59.30;;;;;;4881779;29;20029;-84
2021/12/07 07:17:31;;;;;;;32.63;17.02;;;7.40;59.10;;;;;;4882089;29;20036;-88
2021/12/07 07:19:57;;;;;;;30.80;16.58;;;7.30;58.80;;;;;;4881517;29;20041;-88
2021/12/07 07:22:23;;;;;;;34.58;18.13;;;7.30;58.20;;;;;;4881501;29;20461;-85
2021/12/07 07:24:49;;;;;;;33.45;17.40;;;7.00;59.40;;;;;;4881503;29;20037;-86
2021/12/07 07:27:15;;;;;;;31.85;16.00;;;6.70;60.00;;;;;;4881194;29;20037;-85
2021/12/07 07:29:40;;;;;;;33.65;17.42;;;6.80;60.10;;;;;;4880936;29;20389;-85
2021/12/07 07:32:07;;;;;;;33.83;15.77;;;6.70;60.00;;;;;;4880829;29;20025;-90
2021/12/07 07:34:32;;;;;;;31.60;16.23;;;6.30;60.60;;;;;;4881109;29;20029;-85
2021/12/07 07:36:58;;;;;;;28.13;14.52;;;6.40;61.40;;;;;;4881300;29;20037;-85
2021/12/07 07:39:24;;;;;;;34.08;18.38;;;6.60;59.80;;;;;;4881308;29;20040;-83
2021/12/07 07:41:50;;;;;;;75.68;33.55;;;6.40;61.40;;;;;;4881313;29;20033;-83
2021/12/07 07:44:16;;;;;;;43.47;20.50;;;6.40;61.00;;;;;;4881369;29;20074;-86
2021/12/07 07:46:42;;;;;;;39.83;19.80;;;6.30;60.90;;;;;;4881408;29;20029;-90
2021/12/07 07:49:08;;;;;;;33.75;17.10;;;6.20;61.90;;;;;;4880768;29;20473;-85
2021/12/07 07:51:35;;;;;;;34.15;17.67;;;6.20;61.20;;;;;;4880321;29;20037;-86
2021/12/07 07:54:03;;;;;;;39.28;20.35;;;6.40;61.20;;;;;;4878224;29;20397;-86
2021/12/07 07:56:30;;;;;;;35.67;20.33;;;6.90;60.20;;;;;;4879650;29;20033;-86
2021/12/07 07:58:56;;;;;;;33.35;17.48;;;7.10;58.90;;;;;;4880555;29;20045;-85
2021/12/07 08:01:29;;;;;;;33.53;17.55;;;7.20;58.90;;;;;;4880115;29;20384;-84
2021/12/07 08:03:55;;;;;;;34.00;17.27;;;7.10;59.10;;;;;;4880116;29;20044;-87
2021/12/07 08:06:20;;;;;;;30.95;15.93;;;7.30;59.00;;;;;;4880320;29;20393;-85
2021/12/07 08:08:46;;;;;;;32.45;15.85;;;7.50;58.40;;;;;;4879253;29;20029;-84
2021/12/07 08:11:13;;;;;;;33.00;15.98;;;7.50;57.90;;;;;;4880357;29;20033;-85
2021/12/07 08:13:40;;;;;;;35.20;17.00;;;7.50;58.50;;;;;;4880281;29;20502;-84
2021/12/07 08:16:15;;;;;;;33.10;16.33;;;7.90;57.70;;;;;;4879975;29;20430;-88
2021/12/07 08:18:45;;;;;;;38.90;17.23;;;8.10;57.10;;;;;;4880768;29;20051;-85
2021/12/07 08:21:11;;;;;;;30.67;15.75;;;7.80;57.40;;;;;;4880084;29;20036;-86
2021/12/07 08:23:38;;;;;;;30.52;15.75;;;6.90;58.10;;;;;;4880231;29;20520;-88
2021/12/07 08:26:05;;;;;;;34.80;16.45;;;6.50;59.90;;;;;;4879975;29;20438;-85
2021/12/07 08:28:32;;;;;;;35.47;16.45;;;6.40;60.40;;;;;;4880293;29;20033;-85
2021/12/07 08:30:57;;;;;;;40.35;17.52;;;6.80;60.30;;;;;;4879745;29;20028;-86
2021/12/07 08:36:35;;;;;;;35.03;17.80;;;7.10;59.10;;;;;;5083942;27;1404847;-84
2021/12/07 08:39:02;;;;;;;32.90;16.95;;;7.30;59.00;;;;;;5093960;28;20421;-85
2021/12/07 08:41:28;;;;;;;29.02;14.98;;;8.00;58.50;;;;;;5093395;28;20027;-86
2021/12/07 08:43:54;;;;;;;32.20;17.00;;;8.90;55.90;;;;;;5093604;28;20035;-86
2021/12/07 08:46:20;;;;;;;28.85;16.35;;;9.60;54.60;;;;;;5093337;28;20028;-86
2021/12/07 08:48:52;;;;;;;33.35;15.80;;;9.90;53.40;;;;;;5092973;28;20489;-88
2021/12/07 08:51:18;;;;;;;30.83;15.25;;;10.40;52.30;;;;;;5093804;28;20030;-87
2021/12/07 08:54:00;;;;;;;27.95;14.95;;;11.20;51.60;;;;;;5093416;28;20020;-87
2021/12/07 09:04:16;;;;;;;29.75;15.85;;;11.90;49.80;;;;;;5104286;27;20457;-88
2021/12/07 09:06:42;;;;;;;29.55;15.80;;;12.50;50.00;;;;;;5069800;28;20025;-88
2021/12/07 09:09:08;;;;;;;31.40;16.55;;;13.40;48.20;;;;;;5070913;28;20051;-91
2021/12/07 09:11:34;;;;;;;30.52;15.90;;;13.40;47.70;;;;;;5070322;28;20539;-89
2021/12/07 09:14:00;;;;;;;32.58;18.30;;;14.00;47.60;;;;;;5074093;28;20025;-93
2021/12/07 09:16:25;;;;;;;31.58;17.25;;;15.40;45.80;;;;;;5073543;28;20021;-91
2021/12/07 09:18:51;;;;;;;31.55;16.75;;;15.00;45.00;;;;;;5071481;28;20031;-94
2021/12/07 09:21:18;;;;;;;30.50;16.50;;;14.30;45.70;;;;;;5070124;28;20048;-86
2021/12/07 09:23:44;;;;;;;33.25;17.23;;;14.10;46.50;;;;;;5068850;28;20045;-93
2021/12/07 09:26:10;;;;;;;28.30;16.55;;;14.70;46.60;;;;;;5070080;28;20387;-90
2021/12/07 09:28:38;;;;;;;33.10;17.80;;;13.60;46.10;;;;;;5069300;28;20037;-92
2021/12/07 09:31:06;;;;;;;28.60;15.85;;;12.90;47.30;;;;;;5069709;28;20375;-91
2021/12/07 09:33:32;;;;;;;28.77;16.23;;;13.40;47.70;;;;;;5069931;28;20025;-90
2021/12/07 09:35:58;;;;;;;33.75;17.45;;;13.10;47.40;;;;;;5067535;28;20382;-88
2021/12/07 09:38:24;;;;;;;31.75;17.05;;;13.10;47.10;;;;;;5068054;28;20471;-93
2021/12/07 09:40:50;;;;;;;31.98;16.83;;;12.00;48.90;;;;;;5067408;28;20448;-91
2021/12/07 09:43:37;;;;;;;35.00;17.23;;;12.10;48.70;;;;;;5084955;27;20932;-92
2021/12/07 09:46:06;;;;;;;33.25;17.42;;;12.30;49.30;;;;;;5068401;28;20036;-92
2021/12/07 09:48:32;;;;;;;30.77;16.83;;;13.00;48.00;;;;;;5085472;28;20290;-86
2021/12/07 09:50:58;;;;;;;30.75;16.70;;;13.50;47.60;;;;;;5070453;28;20048;-92
2021/12/07 09:53:25;;;;;;;40.28;19.50;;;13.80;47.20;;;;;;5069655;28;20071;-86
2021/12/07 09:58:59;;;;;;;35.65;17.20;;;14.40;45.80;;;;;;5111883;28;20433;-89
2021/12/07 10:01:27;;;;;;;48.17;24.17;;;14.90;45.70;;;;;;5093614;28;20027;-91
2021/12/07 10:03:53;;;;;;;56.38;27.60;;;15.50;45.60;;;;;;5093536;28;20051;-92
2021/12/07 10:06:20;;;;;;;41.88;19.35;;;16.00;44.80;;;;;;5093247;28;20073;-93
2021/12/07 10:08:46;;;;;;;35.92;20.23;;;16.60;43.30;;;;;;5093250;28;20470;-92
2021/12/07 10:11:12;;;;;;;32.80;18.55;;;16.90;42.90;;;;;;5094167;28;20454;-92
2021/12/07 10:13:45;;;;;;;32.70;19.42;;;16.40;43.80;;;;;;5094377;28;20028;-93
2021/12/07 10:16:23;;;;;;;35.72;19.85;;;16.10;43.50;;;;;;5093715;28;20031;-94
2021/12/07 10:18:51;;;;;;;34.53;19.17;;;15.90;43.90;;;;;;5093399;28;20032;-91
2021/12/07 10:21:25;;;;;;;29.98;16.50;;;15.90;44.70;;;;;;5093363;28;20055;-91
2021/12/07 10:24:02;;;;;;;33.85;18.50;;;15.30;44.70;;;;;;5093078;28;20027;-91
2021/12/07 10:26:34;;;;;;;44.22;25.25;;;15.70;44.90;;;;;;5094228;28;20020;-92
2021/12/07 10:29:08;;;;;;;42.92;23.23;;;14.90;45.10;;;;;;5094079;28;20031;-91
2021/12/07 10:31:46;;;;;;;35.10;18.65;;;15.20;45.30;;;;;;5093368;28;20023;-90
2021/12/07 10:34:17;;;;;;;57.65;26.55;;;15.40;45.00;;;;;;5095854;28;20119;-89
2021/12/07 10:37:09;;;;;;;76.25;33.58;;;14.70;45.30;;;;;;5095097;28;20107;-89
2021/12/07 10:39:39;;;;;;;77.32;33.10;;;15.10;45.80;;;;;;5095706;28;20379;-89
2021/12/07 10:42:13;;;;;;;65.07;32.38;;;14.40;46.20;;;;;;5093900;28;20023;-90
2021/12/07 10:44:43;;;;;;;33.95;19.15;;;14.60;46.90;;;;;;5093619;28;20080;-90
2021/12/07 10:47:14;;;;;;;73.15;37.67;;;14.60;45.70;;;;;;5094398;28;20028;-89
2021/12/07 10:49:42;;;;;;;46.30;25.98;;;13.70;46.70;;;;;;5093768;28;20024;-89
2021/12/07 10:52:14;;;;;;;47.40;27.40;;;13.40;47.40;;;;;;5094142;28;20087;-89
2021/12/07 10:54:54;;;;;;;36.03;19.02;;;12.80;48.00;;;;;;5093048;28;20043;-92
2021/12/07 10:57:29;;;;;;;34.35;18.58;;;11.80;50.00;;;;;;5094314;28;20024;-92
2021/12/07 11:00:16;;;;;;;32.53;17.52;;;11.40;51.10;;;;;;5094081;28;20114;-91
2021/12/07 11:02:47;;;;;;;35.35;18.60;;;11.40;51.80;;;;;;5093567;28;20084;-94
2021/12/07 11:05:51;;;;;;;30.73;17.23;;;11.20;51.80;;;;;;5092386;28;20020;-90
2021/12/07 11:08:19;;;;;;;35.00;19.10;;;11.20;52.10;;;;;;5065347;28;20073;-90
2021/12/07 11:10:48;;;;;;;38.85;18.35;;;11.20;51.30;;;;;;5079739;28;20032;-91
2021/12/07 11:13:22;;;;;;;32.03;18.10;;;10.70;52.50;;;;;;5081173;28;20551;-90
2021/12/07 11:17:33;;;;;;;29.45;16.65;;;9.30;55.00;;;;;;5133948;27;20409;-90
2021/12/07 11:20:00;;;;;;;43.17;20.73;;;8.90;56.20;;;;;;5131861;27;20051;-93
2021/12/07 11:22:31;;;;;;;42.33;19.77;;;8.60;57.50;;;;;;5132874;27;20087;-89
2021/12/07 11:25:01;;;;;;;38.03;18.50;;;8.50;57.60;;;;;;5133196;27;20047;-92
2021/12/07 11:30:27;;;;;;;32.25;17.58;;;8.20;58.40;;;;;;5133789;28;20042;-89
2021/12/07 11:32:56;;;;;;;32.47;16.85;;;7.80;59.20;;;;;;5132132;27;20139;-91
2021/12/07 11:35:30;;;;;;;32.58;17.52;;;8.10;59.60;;;;;;5131519;27;20553;-90
2021/12/07 11:37:58;;;;;;;35.67;18.65;;;8.40;58.80;;;;;;5131789;27;20084;-92
2021/12/07 11:40:29;;;;;;;37.50;19.13;;;8.20;58.20;;;;;;5131862;27;20116;-93
2021/12/07 11:42:55;;;;;;;38.92;21.00;;;8.40;58.50;;;;;;5131947;27;20024;-84
2021/12/07 11:45:25;;;;;;;32.47;17.73;;;8.30;58.80;;;;;;5131468;27;20027;-90
2021/12/07 11:48:02;;;;;;;33.72;17.80;;;8.30;58.90;;;;;;5131221;27;20024;-92
2021/12/07 11:50:36;;;;;;;36.25;17.88;;;8.50;59.00;;;;;;5131482;27;20028;-92
2021/12/07 11:53:20;;;;;;;35.90;18.23;;;9.10;58.30;;;;;;5131693;27;20463;-92
2021/12/07 11:55:54;;;;;;;36.15;18.92;;;9.20;57.60;;;;;;5131020;27;20027;-92
2021/12/07 11:58:21;;;;;;;35.75;19.63;;;9.50;56.80;;;;;;5115264;28;20066;-91
2021/12/07 12:00:52;;;;;;;36.97;18.40;;;9.80;57.00;;;;;;5131633;28;20028;-91
2021/12/07 12:03:22;;;;;;;36.47;19.25;;;9.30;56.70;;;;;;5131188;27;20083;-90
2021/12/07 12:05:49;;;;;;;37.45;19.17;;;8.80;58.30;;;;;;5130097;28;20019;-90
2021/12/07 12:08:19;;;;;;;38.42;19.25;;;8.90;58.10;;;;;;5130921;28;20122;-90
2021/12/07 12:10:48;;;;;;;;;;;8.70;58.00;;;;;;5130712;28;20023;-91
2021/12/07 12:13:46;;;;;;;33.03;17.83;;;9.10;58.70;;;;;;5131270;27;20118;-91
2021/12/07 12:16:40;;;;;;;36.60;18.60;;;9.00;57.70;;;;;;5122150;27;20048;-93
2021/12/07 12:19:18;;;;;;;33.88;18.35;;;9.20;57.70;;;;;;5131264;28;20019;-92
2021/12/07 12:21:50;;;;;;;33.67;18.10;;;9.50;57.30;;;;;;5130732;28;20027;-92
2021/12/07 12:24:30;;;;;;;36.58;19.98;;;9.50;57.50;;;;;;5131113;28;20415;-94
2021/12/07 12:27:07;;;;;;;35.15;18.05;;;9.80;56.40;;;;;;5128546;28;20391;-93
2021/12/07 12:29:37;;;;;;;38.30;19.60;;;9.70;56.50;;;;;;5116788;28;20118;-92
2021/12/07 12:32:07;;;;;;;39.95;18.85;;;9.20;56.80;;;;;;5116097;28;20077;-91
2021/12/07 12:34:37;;;;;;;38.72;20.30;;;8.70;58.20;;;;;;5116257;28;20032;-91
2021/12/07 12:37:17;;;;;;;36.95;18.42;;;8.20;59.90;;;;;;5116762;28;20452;-90
2021/12/07 12:39:58;;;;;;;37.28;17.95;;;7.90;60.10;;;;;;5116757;28;20027;-91
2021/12/07 12:42:30;;;;;;;38.45;18.60;;;7.70;61.30;;;;;;5116163;28;20030;-90
2021/12/07 12:45:27;;;;;;;39.00;19.05;;;7.90;60.50;;;;;;5116068;28;20035;-92
2021/12/07 12:48:07;;;;;;;35.75;19.02;;;8.00;60.30;;;;;;5115986;28;20016;-90
2021/12/07 12:50:35;;;;;;;;;;;7.50;61.90;;;;;;5116039;28;20020;-87
2021/12/07 12:53:07;;;;;;;39.30;20.15;;;7.70;61.70;;;;;;5115775;28;19904;-90
2021/12/07 12:55:36;;;;;;;41.45;20.38;;;7.60;61.40;;;;;;5115865;28;20032;-91
2021/12/07 12:58:06;;;;;;;41.47;21.88;;;7.70;61.60;;;;;;5115690;28;20027;-92
2021/12/07 13:01:08;;;;;;;43.83;21.27;;;8.10;61.20;;;;;;5115805;28;20024;-90
2021/12/07 13:03:44;;;;;;;37.00;19.13;;;8.20;60.30;;;;;;5115461;28;20023;-91
2021/12/07 13:06:16;;;;;;;38.65;19.67;;;8.40;60.10;;;;;;5115580;28;20020;-90
2021/12/07 13:09:08;;;;;;;39.03;19.92;;;8.50;59.50;;;;;;5115488;28;20028;-91
2021/12/07 13:11:45;;;;;;;43.72;21.15;;;8.70;59.30;;;;;;5115487;28;20068;-92
2021/12/07 13:14:27;;;;;;;46.17;22.45;;;9.10;58.80;;;;;;5115105;28;20023;-90
2021/12/07 13:17:14;;;;;;;43.00;21.20;;;8.80;59.00;;;;;;5115577;28;20448;-92
2021/12/07 13:20:08;;;;;;;47.10;25.00;;;8.20;59.60;;;;;;5116186;28;20024;-90
2021/12/07 13:23:00;;;;;;;47.55;22.73;;;8.50;60.50;;;;;;5115605;28;20107;-92
2021/12/07 13:25:35;;;;;;;47.67;21.23;;;9.00;59.10;;;;;;5115079;28;20418;-90
2021/12/07 13:28:04;;;;;;;45.72;22.20;;;8.60;59.60;;;;;;5115841;28;20474;-91
2021/12/07 13:30:46;;;;;;;59.10;25.80;;;8.40;60.20;;;;;;5115145;28;20123;-91
2021/12/07 13:33:22;;;;;;;50.15;24.20;;;8.60;59.70;;;;;;5115528;28;20076;-90
2021/12/07 13:35:50;;;;;;;48.10;25.75;;;8.80;59.60;;;;;;5115275;28;20431;-92
2021/12/07 13:38:27;;;;;;;46.47;22.52;;;9.20;58.90;;;;;;5114592;28;20023;-91
2021/12/07 13:41:15;;;;;;;44.55;21.33;;;9.00;58.50;;;;;;5114982;28;20031;-93
2021/12/07 13:43:44;;;;;;;42.42;19.80;;;8.60;59.30;;;;;;5115114;28;20047;-90
2021/12/07 13:46:25;;;;;;;45.92;21.30;;;8.70;59.00;;;;;;5114797;28;20111;-92
2021/12/07 13:49:01;;;;;;;44.85;20.73;;;8.70;59.00;;;;;;5114458;28;20478;-91
2021/12/07 13:51:28;;;;;;;39.22;18.85;;;8.70;59.80;;;;;;5115145;28;20027;-91
2021/12/07 13:53:54;;;;;;;46.33;21.23;;;9.00;58.50;;;;;;5114871;28;20028;-91
2021/12/07 13:56:21;;;;;;;43.70;20.58;;;8.90;58.60;;;;;;5114657;28;20032;-91
2021/12/07 13:59:03;;;;;;;38.63;19.70;;;8.90;58.20;;;;;;5113665;28;20382;-92
2021/12/07 14:01:32;;;;;;;35.88;18.30;;;8.70;58.50;;;;;;5114869;28;20019;-93
2021/12/07 14:03:59;;;;;;;38.22;18.67;;;8.30;59.20;;;;;;5115303;28;20023;-91
2021/12/07 14:06:26;;;;;;;38.58;18.95;;;8.30;59.20;;;;;;5114909;28;20114;-90
2021/12/07 14:08:52;;;;;;;38.22;19.60;;;8.10;59.20;;;;;;5115338;28;20110;-93
2021/12/07 14:11:20;;;;;;;39.10;19.17;;;8.40;59.30;;;;;;5114996;28;20123;-90
2021/12/07 14:13:48;;;;;;;41.30;20.23;;;8.70;58.70;;;;;;5115664;28;20024;-90
2021/12/07 14:16:16;;;;;;;40.78;20.20;;;8.70;58.80;;;;;;5114013;28;20414;-91
2021/12/07 14:18:44;;;;;;;40.15;20.40;;;8.70;59.00;;;;;;5115082;28;20057;-91
2021/12/07 14:21:11;;;;;;;38.65;19.38;;;8.50;58.80;;;;;;5114713;28;20371;-91
2021/12/07 14:23:44;;;;;;;40.63;20.73;;;8.70;59.00;;;;;;5114658;28;20020;-91
2021/12/07 14:26:12;;;;;;;43.22;21.42;;;8.90;58.40;;;;;;5114376;28;20060;-91
2021/12/07 14:28:45;;;;;;;42.50;19.77;;;9.10;57.60;;;;;;5114533;28;20028;-92
2021/12/07 14:31:32;;;;;;;38.95;18.50;;;9.00;57.80;;;;;;5115347;28;20024;-89
2021/12/07 14:34:19;;;;;;;40.83;19.92;;;9.00;58.00;;;;;;5114555;28;20027;-91
2021/12/07 14:36:51;;;;;;;39.03;18.30;;;8.80;57.60;;;;;;5114388;28;20123;-90
2021/12/07 14:39:32;;;;;;;38.78;18.45;;;8.60;58.20;;;;;;5115251;28;20027;-91
2021/12/07 14:41:59;;;;;;;;;;;8.80;58.50;;;;;;5115504;28;20032;-90
2021/12/07 14:44:34;;;;;;;41.90;20.50;;;8.70;57.80;;;;;;5116065;28;19939;-91
2021/12/07 14:47:05;;;;;;;43.30;20.45;;;8.80;57.90;;;;;;5114096;28;20024;-93
2021/12/07 14:49:33;;;;;;;43.97;21.33;;;8.60;58.40;;;;;;5115264;28;20024;-90
2021/12/07 14:51:59;;;;;;;39.85;19.17;;;8.50;59.00;;;;;;5114048;28;20019;-91
2021/12/07 14:54:25;;;;;;;44.10;19.42;;;8.30;58.50;;;;;;5115010;28;20045;-91
2021/12/07 14:56:53;;;;;;;38.20;18.75;;;8.30;58.90;;;;;;5114494;28;20136;-90
2021/12/07 14:59:20;;;;;;;45.53;23.15;;;8.40;59.20;;;;;;5114194;28;20030;-92
2021/12/07 15:01:49;;;;;;;40.47;19.10;;;7.90;59.40;;;;;;5114502;28;20427;-91
2021/12/07 15:04:17;;;;;;;38.70;19.58;;;7.90;60.00;;;;;;5115467;28;20028;-90
2021/12/07 15:07:00;;;;;;;38.47;18.98;;;8.00;59.60;;;;;;5114039;28;20118;-90
2021/12/07 15:09:27;;;;;;;41.78;19.33;;;7.90;59.60;;;;;;5113705;28;20039;-91
2021/12/07 15:11:55;;;;;;;40.75;18.75;;;8.00;59.90;;;;;;5114388;28;20400;-90
2021/12/07 15:14:24;;;;;;;37.85;19.23;;;8.20;59.00;;;;;;5114987;28;20020;-91
2021/12/07 15:16:53;;;;;;;38.60;18.80;;;8.00;59.80;;;;;;5113838;28;20055;-91
2021/12/07 15:19:29;;;;;;;43.93;21.40;;;7.80;60.20;;;;;;5115837;28;20027;-90
2021/12/07 15:22:22;;;;;;;63.97;25.60;;;7.50;60.40;;;;;;5114283;28;20098;-94
2021/12/07 15:24:48;;;;;;;52.03;22.10;;;7.40;61.80;;;;;;5111656;28;20498;-90
2021/12/07 15:27:20;;;;;;;41.67;19.20;;;7.30;61.30;;;;;;5113632;28;20427;-91
2021/12/07 15:29:52;;;;;;;70.28;33.75;;;7.50;60.80;;;;;;5113492;28;20023;-94
2021/12/07 15:32:19;;;;;;;118.88;85.18;;;7.90;60.10;;;;;;5113694;28;20032;-90
2021/12/07 15:34:46;;;;;;;71.25;44.33;;;7.70;60.10;;;;;;5113852;28;20091;-92
2021/12/07 15:37:23;;;;;;;78.72;39.53;;;7.60;60.70;;;;;;5113303;28;20088;-91
2021/12/07 15:39:55;;;;;;;47.83;23.33;;;7.30;61.40;;;;;;5113606;28;20024;-91
2021/12/07 15:42:34;;;;;;;63.65;25.48;;;7.80;60.50;;;;;;5113512;28;20035;-91
2021/12/07 15:45:05;;;;;;;52.33;21.47;;;7.80;59.10;;;;;;5113473;28;20020;-92
2021/12/07 15:47:40;;;;;;;51.10;22.95;;;7.40;60.20;;;;;;5113292;28;20039;-91
2021/12/07 15:50:11;;;;;;;50.15;24.88;;;7.30;61.10;;;;;;5113185;28;20024;-90
2021/12/07 15:53:09;;;;;;;47.58;23.13;;;7.60;60.80;;;;;;5113796;28;20020;-92